»·PEaware :: SBE250 KADM-KSAW

SBE250 :: KADM-KSAW

FLIGHT INFORMATION

Flight Status: Arrived
Operator: Unknown
More flights by this operator :: More flights under this callsign
Pilot: Anonymous 13363 (13363)
Aircraft: BOMBARDIER BD-100 CHALLENGER 300
(CL30)
More flights by this aircraft type
Origin: KADM Ardmore Mun
United States
Destination: KSAW Sawyer Intl
United States
More flights between these airports :: More routes between these airports
Route: ADM TUL J87 IRK DLL SAW
File this flight plan on PilotEdge
Remarks:
Altitude:
(Current/Filed)
41,000ft
Speed:
(Current/Filed)
475kts
Departed: 01-Feb-18 07:51 PM
Arrived: 01-Feb-18 09:52 PM
Distance/Time
Traveled:
844nm/2:01
Distance/Time
To Go:
Arrived

Flight Plot

Page will automatically refresh every two minutes.

Flight plan parsing failed; only flown route is shown


Map Options




Map Legend


Flown Route
Filed Route
Departure Airport
Arrival Airport
Navaid (VOR, NDB)
Fix

Horizontal Profiles

Position Reports

Time Latitude Longitude Heading Altitude Ground
Speed
01-Feb-18 19:51 34.298203 -97.026463 90 728ft 0kts
01-Feb-18 19:52 34.298203 -97.026463 90 728ft 0kts
01-Feb-18 19:53 34.298203 -97.026463 90 728ft 0kts
01-Feb-18 19:54 34.298132 -97.025708 113 728ft 11kts
01-Feb-18 19:55 34.294705 -97.025692 187 727ft 18kts
01-Feb-18 19:56 34.293934 -97.023607 357 727ft 12kts
01-Feb-18 19:57 34.318792 -97.022912 7 1934ft 153kts
01-Feb-18 19:58 34.363776 -96.997647 27 4760ft 250kts
01-Feb-18 19:59 34.426432 -96.958236 26 9623ft 265kts
01-Feb-18 20:00 34.497661 -96.912330 19 12364ft 334kts
01-Feb-18 20:01 34.582237 -96.857835 17 16057ft 356kts
01-Feb-18 20:02 34.671096 -96.800372 16 19260ft 378kts
01-Feb-18 20:03 34.766013 -96.738735 16 22012ft 400kts
01-Feb-18 20:04 34.866155 -96.673437 16 24450ft 421kts
01-Feb-18 20:05 34.970782 -96.604978 16 26688ft 437kts
01-Feb-18 20:06 35.078923 -96.534040 16 28584ft 453kts
01-Feb-18 20:07 35.189676 -96.461089 15 30830ft 454kts
01-Feb-18 20:08 35.299548 -96.388625 15 32970ft 452kts
01-Feb-18 20:09 35.409658 -96.315737 15 34884ft 452kts
01-Feb-18 20:10 35.519724 -96.242655 15 36598ft 450kts
01-Feb-18 20:11 35.629572 -96.169505 15 37982ft 453kts
01-Feb-18 20:12 35.740154 -96.095598 15 39290ft 452kts
01-Feb-18 20:13 35.849982 -96.022013 15 40468ft 451kts
01-Feb-18 20:14 35.959975 -95.948132 15 41055ft 461kts
01-Feb-18 20:15 36.075686 -95.870057 16 41055ft 486kts
01-Feb-18 20:16 36.191463 -95.791547 16 41053ft 484kts
01-Feb-18 20:17 36.310606 -95.718633 13 41055ft 479kts
01-Feb-18 20:18 36.429750 -95.646003 13 41057ft 479kts
01-Feb-18 20:19 36.548864 -95.573078 13 41058ft 479kts
01-Feb-18 20:20 36.667285 -95.500318 13 41085ft 479kts
01-Feb-18 20:21 36.786435 -95.426841 13 41087ft 479kts
01-Feb-18 20:22 36.905475 -95.353176 13 41089ft 479kts
01-Feb-18 20:23 37.023093 -95.280137 13 41068ft 475kts
01-Feb-18 20:24 37.139620 -95.207543 13 41073ft 475kts
01-Feb-18 20:25 37.257266 -95.133979 13 41049ft 476kts
01-Feb-18 20:26 37.375263 -95.059935 13 41048ft 476kts
01-Feb-18 20:27 37.493210 -94.985662 13 41049ft 476kts
01-Feb-18 20:28 37.610901 -94.911285 13 41051ft 476kts
01-Feb-18 20:29 37.729088 -94.836328 13 41052ft 476kts
01-Feb-18 20:30 37.846831 -94.761384 13 41053ft 476kts
01-Feb-18 20:31 37.964731 -94.686069 13 41054ft 476kts
01-Feb-18 20:32 38.082505 -94.610564 13 41082ft 476kts
01-Feb-18 20:33 38.198063 -94.536228 13 41555ft 474kts
01-Feb-18 20:34 38.312425 -94.448187 24 41546ft 495kts
01-Feb-18 20:35 38.420390 -94.343120 25 41567ft 496kts
01-Feb-18 20:36 38.529511 -94.235896 26 41555ft 497kts
01-Feb-18 20:37 38.638622 -94.128156 26 41558ft 497kts
01-Feb-18 20:38 38.747292 -94.019569 26 41560ft 498kts
01-Feb-18 20:39 38.855981 -93.909950 26 41562ft 498kts
01-Feb-18 20:40 38.964463 -93.800097 26 41564ft 498kts
01-Feb-18 20:41 39.072592 -93.690160 26 41566ft 498kts
01-Feb-18 20:42 39.176068 -93.584572 27 41561ft 474kts
01-Feb-18 20:43 39.279775 -93.479017 27 41572ft 479kts
01-Feb-18 20:44 39.383213 -93.373308 27 41571ft 471kts
01-Feb-18 20:45 39.484856 -93.269104 28 41557ft 473kts
01-Feb-18 20:46 39.587479 -93.163337 28 41558ft 473kts
01-Feb-18 20:47 39.690275 -93.057010 28 41561ft 477kts
01-Feb-18 20:48 39.793651 -92.949592 28 41534ft 477kts
01-Feb-18 20:49 39.895993 -92.842964 29 41527ft 459kts
01-Feb-18 20:50 39.994166 -92.740123 29 41535ft 456kts
01-Feb-18 20:51 40.092784 -92.636463 29 41533ft 456kts
01-Feb-18 20:52 40.183584 -92.552637 20 41544ft 445kts
01-Feb-18 20:53 40.290220 -92.470636 20 41543ft 446kts
01-Feb-18 20:54 40.396233 -92.387843 21 41543ft 446kts
01-Feb-18 20:55 40.502553 -92.304280 21 41530ft 447kts
01-Feb-18 20:56 40.608790 -92.220475 21 41530ft 447kts
01-Feb-18 20:57 40.714544 -92.136716 21 41530ft 447kts
01-Feb-18 20:58 40.820908 -92.052152 21 41531ft 447kts
01-Feb-18 20:59 40.926721 -91.967707 21 41531ft 447kts
01-Feb-18 21:00 41.032884 -91.882659 21 41531ft 447kts
01-Feb-18 21:01 41.136121 -91.799742 22 41540ft 449kts
01-Feb-18 21:02 41.241992 -91.714182 21 41540ft 447kts
01-Feb-18 21:03 41.347605 -91.628618 21 41540ft 447kts
01-Feb-18 21:04 41.453257 -91.542685 21 41540ft 448kts
01-Feb-18 21:05 41.559277 -91.456114 21 41540ft 448kts
01-Feb-18 21:06 41.664991 -91.369456 21 41540ft 448kts
01-Feb-18 21:07 41.770434 -91.282670 22 41528ft 449kts
01-Feb-18 21:08 41.876294 -91.195227 22 41528ft 448kts
01-Feb-18 21:09 41.982108 -91.107466 22 41502ft 448kts
01-Feb-18 21:10 42.087583 -91.019638 22 41502ft 448kts
01-Feb-18 21:11 42.193884 -90.930857 23 41485ft 467kts
01-Feb-18 21:12 42.303419 -90.838818 23 41483ft 463kts
01-Feb-18 21:13 42.413026 -90.746414 23 41480ft 465kts
01-Feb-18 21:14 42.521903 -90.654268 23 41485ft 464kts
01-Feb-18 21:15 42.630911 -90.561611 23 41485ft 464kts
01-Feb-18 21:16 42.739921 -90.468565 23 41486ft 464kts
01-Feb-18 21:17 42.848649 -90.375369 23 41438ft 464kts
01-Feb-18 21:18 42.933985 -90.301960 24 41421ft 465kts
01-Feb-18 21:19 43.042938 -90.207863 24 41481ft 466kts
01-Feb-18 21:20 43.148535 -90.116268 24 41502ft 469kts
01-Feb-18 21:21 43.257915 -90.021006 24 41508ft 466kts
01-Feb-18 21:22 43.366824 -89.925752 24 41455ft 467kts
01-Feb-18 21:23 43.475650 -89.830158 24 41455ft 467kts
01-Feb-18 21:24 43.585543 -89.736210 21 41457ft 465kts
01-Feb-18 21:25 43.696852 -89.647310 21 41457ft 464kts
01-Feb-18 21:26 43.789674 -89.572881 21 41457ft 464kts
01-Feb-18 21:27 43.919283 -89.468497 21 41458ft 464kts
01-Feb-18 21:28 44.030721 -89.378323 21 41459ft 464kts
01-Feb-18 21:29 44.127939 -89.299341 22 41451ft 465kts
01-Feb-18 21:30 44.220077 -89.224181 22 41444ft 461kts
01-Feb-18 21:31 44.326496 -89.137010 21 41405ft 440kts
01-Feb-18 21:32 44.450678 -89.034922 21 38904ft 450kts
01-Feb-18 21:33 44.557965 -88.946278 21 36740ft 449kts
01-Feb-18 21:34 44.646527 -88.872782 22 34956ft 444kts
01-Feb-18 21:35 44.751727 -88.785157 22 32848ft 441kts
01-Feb-18 21:36 44.857062 -88.697036 23 30756ft 442kts
01-Feb-18 21:37 44.962302 -88.608584 23 28671ft 441kts
01-Feb-18 21:38 45.064146 -88.522566 23 26638ft 413kts
01-Feb-18 21:39 45.157108 -88.443824 23 24802ft 388kts
01-Feb-18 21:40 45.246229 -88.368057 23 23057ft 366kts
01-Feb-18 21:41 45.328661 -88.297722 23 21402ft 348kts
01-Feb-18 21:42 45.409331 -88.228676 23 19784ft 332kts
01-Feb-18 21:43 45.486643 -88.162287 22 18244ft 318kts
01-Feb-18 21:44 45.560483 -88.098710 22 16783ft 304kts
01-Feb-18 21:45 45.631377 -88.037475 22 15389ft 292kts
01-Feb-18 21:46 45.699401 -87.978535 22 14059ft 281kts
01-Feb-18 21:47 45.765052 -87.921352 23 12781ft 286kts
01-Feb-18 21:48 45.846134 -87.850821 24 12246ft 339kts
01-Feb-18 21:49 45.925862 -87.780912 25 10424ft 328kts
01-Feb-18 21:50 46.000483 -87.715385 26 8755ft 304kts
01-Feb-18 21:51 46.070838 -87.653575 28 7246ft 290kts
01-Feb-18 21:52 46.136879 -87.595146 28 5878ft 277kts
01-Feb-18 21:53 46.201250 -87.538122 28 4588ft 266kts
01-Feb-18 21:54 46.246112 -87.467168 67 3410ft 234kts
01-Feb-18 21:55 46.271559 -87.400757 354 2692ft 149kts
01-Feb-18 21:56 46.306356 -87.406244 3 1822ft 120kts
01-Feb-18 21:57 46.338055 -87.398967 3 1198ft 112kts
01-Feb-18 21:58 46.347634 -87.392956 99 1183ft 15kts
01-Feb-18 21:59 46.347662 -87.390036 8 1187ft 0kts
01-Feb-18 22:00 46.347662 -87.390036 8 1187ft 0kts
01-Feb-18 22:01 46.347662 -87.390036 8 1187ft 0kts
01-Feb-18 22:02 46.347662 -87.390036 8 1187ft 0kts
01-Feb-18 22:03 46.347662 -87.390036 8 1187ft 0kts
01-Feb-18 22:12 46.337475 -87.391708 190 1182ft 12kts

Navigation Log

Ident Type
Flight plan parsing failed, navigation log unavailable